sensor_id;sensor_type;location;lat;lon;timestamp;pressure;altitude;pressure_sealevel;temperature;humidity
23016;BME280;11674;52.428;13.584;2023-02-12T00:00:53;103057.34;;;9.88;81.90
23016;BME280;11674;52.428;13.584;2023-02-12T00:06:01;103056.50;;;9.87;81.80
23016;BME280;11674;52.428;13.584;2023-02-12T00:11:16;103053.34;;;9.84;81.77
23016;BME280;11674;52.428;13.584;2023-02-12T00:16:26;103057.81;;;9.85;81.88
23016;BME280;11674;52.428;13.584;2023-02-12T00:21:34;103076.81;;;9.81;81.98
23016;BME280;11674;52.428;13.584;2023-02-12T00:26:40;103084.91;;;9.83;82.13
23016;BME280;11674;52.428;13.584;2023-02-12T00:31:48;103086.38;;;9.85;82.00
23016;BME280;11674;52.428;13.584;2023-02-12T00:36:54;103091.94;;;9.85;81.86
23016;BME280;11674;52.428;13.584;2023-02-12T00:42:01;103085.13;;;9.81;81.90
23016;BME280;11674;52.428;13.584;2023-02-12T00:47:08;103084.75;;;9.78;81.98
23016;BME280;11674;52.428;13.584;2023-02-12T00:52:15;103101.00;;;9.74;82.03
23016;BME280;11674;52.428;13.584;2023-02-12T00:57:23;103112.31;;;9.73;82.12
23016;BME280;11674;52.428;13.584;2023-02-12T01:02:30;103116.16;;;9.72;82.06
23016;BME280;11674;52.428;13.584;2023-02-12T01:07:39;103118.94;;;9.72;82.09
23016;BME280;11674;52.428;13.584;2023-02-12T01:12:48;103125.56;;;9.71;81.96
23016;BME280;11674;52.428;13.584;2023-02-12T01:17:55;103116.97;;;9.72;81.98
23016;BME280;11674;52.428;13.584;2023-02-12T01:23:01;103126.16;;;9.73;81.94
23016;BME280;11674;52.428;13.584;2023-02-12T01:28:09;103125.56;;;9.71;81.88
23016;BME280;11674;52.428;13.584;2023-02-12T01:33:18;103114.03;;;9.67;82.06
23016;BME280;11674;52.428;13.584;2023-02-12T01:38:24;103122.34;;;9.67;81.97
23016;BME280;11674;52.428;13.584;2023-02-12T01:43:35;103131.97;;;9.65;82.06
23016;BME280;11674;52.428;13.584;2023-02-12T01:48:45;103137.50;;;9.65;82.13
23016;BME280;11674;52.428;13.584;2023-02-12T01:53:57;103142.44;;;9.63;82.05
23016;BME280;11674;52.428;13.584;2023-02-12T01:59:06;103135.22;;;9.62;82.06
23016;BME280;11674;52.428;13.584;2023-02-12T02:04:16;103136.94;;;9.56;81.91
23016;BME280;11674;52.428;13.584;2023-02-12T02:09:27;103150.41;;;9.53;82.07
23016;BME280;11674;52.428;13.584;2023-02-12T02:14:35;103151.50;;;9.52;81.87
23016;BME280;11674;52.428;13.584;2023-02-12T02:31:19;103155.16;;;9.46;82.16
23016;BME280;11674;52.428;13.584;2023-02-12T02:36:39;103154.94;;;9.47;82.17
23016;BME280;11674;52.428;13.584;2023-02-12T02:42:07;103153.47;;;9.45;82.11
23016;BME280;11674;52.428;13.584;2023-02-12T02:47:18;103147.06;;;9.44;81.94
23016;BME280;11674;52.428;13.584;2023-02-12T02:52:36;103153.91;;;9.42;82.06
23016;BME280;11674;52.428;13.584;2023-02-12T02:57:49;103157.75;;;9.41;81.99
23016;BME280;11674;52.428;13.584;2023-02-12T03:03:01;103171.59;;;9.41;81.94
23016;BME280;11674;52.428;13.584;2023-02-12T03:08:19;103171.81;;;9.39;81.87
23016;BME280;11674;52.428;13.584;2023-02-12T03:19:12;103181.47;;;9.30;81.95
23016;BME280;11674;52.428;13.584;2023-02-12T03:29:48;103188.97;;;9.23;82.01
23016;BME280;11674;52.428;13.584;2023-02-12T03:40:34;103200.25;;;9.22;82.04
23016;BME280;11674;52.428;13.584;2023-02-12T03:51:36;103208.16;;;9.18;82.06
23016;BME280;11674;52.428;13.584;2023-02-12T03:56:53;103211.78;;;9.19;81.93
23016;BME280;11674;52.428;13.584;2023-02-12T04:02:02;103226.25;;;9.21;82.02
23016;BME280;11674;52.428;13.584;2023-02-12T04:07:09;103226.25;;;9.21;81.91
23016;BME280;11674;52.428;13.584;2023-02-12T04:12:39;103232.88;;;9.20;82.00
23016;BME280;11674;52.428;13.584;2023-02-12T04:18:14;103229.50;;;9.18;81.89
23016;BME280;11674;52.428;13.584;2023-02-12T04:23:40;103236.94;;;9.17;81.94
23016;BME280;11674;52.428;13.584;2023-02-12T04:39:53;103245.25;;;9.11;81.75
23016;BME280;11674;52.428;13.584;2023-02-12T04:45:00;103245.25;;;9.11;81.65
23016;BME280;11674;52.428;13.584;2023-02-12T04:50:07;103247.00;;;9.05;81.55
23016;BME280;11674;52.428;13.584;2023-02-12T04:55:15;103244.72;;;8.96;81.37
23016;BME280;11674;52.428;13.584;2023-02-12T05:00:22;103237.91;;;8.85;81.26
23016;BME280;11674;52.428;13.584;2023-02-12T05:05:29;103242.84;;;8.77;81.26
23016;BME280;11674;52.428;13.584;2023-02-12T05:10:36;103252.22;;;8.69;81.20
23016;BME280;11674;52.428;13.584;2023-02-12T05:15:42;103252.47;;;8.61;81.09
23016;BME280;11674;52.428;13.584;2023-02-12T05:21:00;103249.31;;;8.51;80.92
23016;BME280;11674;52.428;13.584;2023-02-12T05:26:12;103252.28;;;8.43;80.79
23016;BME280;11674;52.428;13.584;2023-02-12T05:31:19;103261.44;;;8.31;80.48
23016;BME280;11674;52.428;13.584;2023-02-12T05:36:27;103256.56;;;8.20;80.44
23016;BME280;11674;52.428;13.584;2023-02-12T05:41:33;103269.91;;;8.10;80.30
23016;BME280;11674;52.428;13.584;2023-02-12T05:46:41;103270.97;;;8.02;80.40
23016;BME280;11674;52.428;13.584;2023-02-12T05:51:49;103275.25;;;7.98;80.45
23016;BME280;11674;52.428;13.584;2023-02-12T05:56:56;103273.75;;;7.96;80.55
23016;BME280;11674;52.428;13.584;2023-02-12T06:02:02;103281.41;;;8.00;80.66
23016;BME280;11674;52.428;13.584;2023-02-12T06:07:09;103279.94;;;8.04;80.79
23016;BME280;11674;52.428;13.584;2023-02-12T06:12:17;103278.00;;;8.05;80.81
23016;BME280;11674;52.428;13.584;2023-02-12T06:17:24;103284.19;;;8.13;81.23
23016;BME280;11674;52.428;13.584;2023-02-12T06:22:31;103284.63;;;8.23;81.21
23016;BME280;11674;52.428;13.584;2023-02-12T06:27:37;103298.44;;;8.23;81.16
23016;BME280;11674;52.428;13.584;2023-02-12T06:32:48;103316.53;;;8.26;81.40
23016;BME280;11674;52.428;13.584;2023-02-12T06:37:56;103316.53;;;8.32;81.50
23016;BME280;11674;52.428;13.584;2023-02-12T06:43:03;103322.09;;;8.39;81.54
23016;BME280;11674;52.428;13.584;2023-02-12T06:48:10;103320.34;;;8.44;81.54
23016;BME280;11674;52.428;13.584;2023-02-12T06:53:17;103338.25;;;8.55;81.53
23016;BME280;11674;52.428;13.584;2023-02-12T06:58:24;103344.63;;;8.62;81.43
23016;BME280;11674;52.428;13.584;2023-02-12T07:03:31;103353.13;;;8.67;81.47
23016;BME280;11674;52.428;13.584;2023-02-12T07:08:38;103356.31;;;8.70;81.55
23016;BME280;11674;52.428;13.584;2023-02-12T07:13:46;103365.03;;;8.74;81.57
23016;BME280;11674;52.428;13.584;2023-02-12T07:18:53;103372.28;;;8.75;81.69
23016;BME280;11674;52.428;13.584;2023-02-12T07:24:00;103371.84;;;8.78;81.56
23016;BME280;11674;52.428;13.584;2023-02-12T07:29:07;103375.28;;;8.80;81.67
23016;BME280;11674;52.428;13.584;2023-02-12T07:34:14;103383.53;;;8.86;81.54
23016;BME280;11674;52.428;13.584;2023-02-12T07:39:21;103379.09;;;8.92;81.60
23016;BME280;11674;52.428;13.584;2023-02-12T07:44:28;103388.22;;;8.99;81.47
23016;BME280;11674;52.428;13.584;2023-02-12T07:49:35;103386.28;;;9.06;81.45
23016;BME280;11674;52.428;13.584;2023-02-12T07:54:42;103396.94;;;9.09;81.59
23016;BME280;11674;52.428;13.584;2023-02-12T07:59:49;103392.25;;;9.09;81.82
23016;BME280;11674;52.428;13.584;2023-02-12T08:04:56;103399.03;;;9.13;81.78
23016;BME280;11674;52.428;13.584;2023-02-12T08:10:03;103394.56;;;9.19;81.51
23016;BME280;11674;52.428;13.584;2023-02-12T08:15:10;103395.19;;;9.21;81.64
23016;BME280;11674;52.428;13.584;2023-02-12T08:20:17;103397.97;;;9.21;81.88
23016;BME280;11674;52.428;13.584;2023-02-12T08:25:24;103414.16;;;9.24;81.85
23016;BME280;11674;52.428;13.584;2023-02-12T08:30:31;103424.78;;;9.33;81.89
23016;BME280;11674;52.428;13.584;2023-02-12T08:35:38;103422.84;;;9.40;81.74
23016;BME280;11674;52.428;13.584;2023-02-12T08:40:45;103436.88;;;9.52;81.61
23016;BME280;11674;52.428;13.584;2023-02-12T08:45:52;103435.59;;;9.61;81.74
23016;BME280;11674;52.428;13.584;2023-02-12T08:51:06;103444.91;;;9.73;81.67
23016;BME280;11674;52.428;13.584;2023-02-12T08:56:16;103450.00;;;9.82;81.97
23016;BME280;11674;52.428;13.584;2023-02-12T09:01:25;103454.44;;;9.90;81.76
23016;BME280;11674;52.428;13.584;2023-02-12T09:06:33;103447.59;;;9.99;82.00
23016;BME280;11674;52.428;13.584;2023-02-12T09:11:41;103458.00;;;10.03;81.58
23016;BME280;11674;52.428;13.584;2023-02-12T09:16:48;103456.13;;;10.04;81.69
23016;BME280;11674;52.428;13.584;2023-02-12T09:21:55;103453.97;;;10.06;81.82
23016;BME280;11674;52.428;13.584;2023-02-12T09:27:02;103469.69;;;10.18;82.09
23016;BME280;11674;52.428;13.584;2023-02-12T09:32:09;103470.97;;;10.22;81.71
23016;BME280;11674;52.428;13.584;2023-02-12T09:37:16;103477.59;;;10.21;81.73
23016;BME280;11674;52.428;13.584;2023-02-12T09:42:48;103479.75;;;10.13;81.51
23016;BME280;11674;52.428;13.584;2023-02-12T09:53:20;103485.72;;;10.16;81.75
23016;BME280;11674;52.428;13.584;2023-02-12T09:58:50;103497.88;;;10.15;81.61
23016;BME280;11674;52.428;13.584;2023-02-12T10:03:58;103484.44;;;10.19;81.68
23016;BME280;11674;52.428;13.584;2023-02-12T10:09:18;103486.97;;;10.20;81.73
23016;BME280;11674;52.428;13.584;2023-02-12T10:35:54;103487.16;;;10.63;81.60
23016;BME280;11674;52.428;13.584;2023-02-12T10:41:05;103482.00;;;10.66;81.81
23016;BME280;11674;52.428;13.584;2023-02-12T10:46:14;103483.50;;;10.62;80.97
23016;BME280;11674;52.428;13.584;2023-02-12T10:51:42;103474.47;;;10.42;81.05
23016;BME280;11674;52.428;13.584;2023-02-12T10:56:54;103482.63;;;10.37;81.24
23016;BME280;11674;52.428;13.584;2023-02-12T11:02:01;103480.06;;;10.36;80.95
23016;BME280;11674;52.428;13.584;2023-02-12T11:07:08;103484.72;;;10.42;81.37
23016;BME280;11674;52.428;13.584;2023-02-12T11:12:34;103479.53;;;10.52;81.21
23016;BME280;11674;52.428;13.584;2023-02-12T11:17:44;103473.72;;;10.60;81.08
23016;BME280;11674;52.428;13.584;2023-02-12T11:22:58;103464.03;;;10.69;81.34
23016;BME280;11674;52.428;13.584;2023-02-12T11:28:17;103476.84;;;10.70;80.86
23016;BME280;11674;52.428;13.584;2023-02-12T11:33:35;103468.44;;;10.52;80.87
23016;BME280;11674;52.428;13.584;2023-02-12T11:38:54;103471.53;;;10.37;80.20
23016;BME280;11674;52.428;13.584;2023-02-12T11:44:12;103472.44;;;10.25;80.14
23016;BME280;11674;52.428;13.584;2023-02-12T11:49:26;103469.19;;;10.34;80.57
23016;BME280;11674;52.428;13.584;2023-02-12T11:54:40;103467.88;;;10.37;80.37
23016;BME280;11674;52.428;13.584;2023-02-12T11:59:48;103456.59;;;10.32;80.71
23016;BME280;11674;52.428;13.584;2023-02-12T12:05:05;103455.13;;;10.29;80.61
23016;BME280;11674;52.428;13.584;2023-02-12T12:15:56;103460.28;;;10.26;80.75
23016;BME280;11674;52.428;13.584;2023-02-12T12:26:30;103465.72;;;10.39;81.04
23016;BME280;11674;52.428;13.584;2023-02-12T12:31:46;103445.47;;;10.38;81.12
23016;BME280;11674;52.428;13.584;2023-02-12T13:10:02;103418.28;;;11.63;81.24
23016;BME280;11674;52.428;13.584;2023-02-12T13:15:27;103426.22;;;11.77;80.88
23016;BME280;11674;52.428;13.584;2023-02-12T13:31:18;103423.69;;;11.15;80.74
23016;BME280;11674;52.428;13.584;2023-02-12T13:36:26;103419.53;;;11.24;80.69
23016;BME280;11674;52.428;13.584;2023-02-12T13:41:33;103413.34;;;11.22;80.37
23016;BME280;11674;52.428;13.584;2023-02-12T13:57:11;103418.28;;;12.10;80.07
23016;BME280;11674;52.428;13.584;2023-02-12T14:07:45;103412.94;;;11.61;79.71
23016;BME280;11674;52.428;13.584;2023-02-12T14:13:07;103412.97;;;11.55;79.86
23016;BME280;11674;52.428;13.584;2023-02-12T14:23:34;103412.59;;;11.51;79.53
23016;BME280;11674;52.428;13.584;2023-02-12T14:28:58;103416.91;;;11.47;79.27
23016;BME280;11674;52.428;13.584;2023-02-12T14:49:37;103413.06;;;11.30;79.02
23016;BME280;11674;52.428;13.584;2023-02-12T14:54:48;103412.59;;;11.33;79.02
23016;BME280;11674;52.428;13.584;2023-02-12T15:00:19;103410.66;;;11.34;79.15
23016;BME280;11674;52.428;13.584;2023-02-12T15:05:30;103401.06;;;11.30;79.17
23016;BME280;11674;52.428;13.584;2023-02-12T15:11:16;103408.63;;;11.23;79.02
23016;BME280;11674;52.428;13.584;2023-02-12T15:21:58;103410.31;;;11.06;78.79
23016;BME280;11674;52.428;13.584;2023-02-12T15:27:05;103415.53;;;10.96;78.67
23016;BME280;11674;52.428;13.584;2023-02-12T15:32:18;103419.84;;;10.92;78.71
23016;BME280;11674;52.428;13.584;2023-02-12T15:37:29;103419.44;;;10.88;78.75
23016;BME280;11674;52.428;13.584;2023-02-12T15:42:36;103415.84;;;10.88;78.82
23016;BME280;11674;52.428;13.584;2023-02-12T15:47:44;103416.28;;;10.85;78.67
23016;BME280;11674;52.428;13.584;2023-02-12T15:52:52;103415.03;;;10.81;78.61
23016;BME280;11674;52.428;13.584;2023-02-12T15:58:00;103417.19;;;10.79;78.77
23016;BME280;11674;52.428;13.584;2023-02-12T16:03:27;103431.50;;;10.76;78.84
23016;BME280;11674;52.428;13.584;2023-02-12T16:08:36;103430.91;;;10.74;78.66
23016;BME280;11674;52.428;13.584;2023-02-12T16:13:55;103427.09;;;10.68;78.80
23016;BME280;11674;52.428;13.584;2023-02-12T16:19:19;103419.66;;;10.62;78.45
23016;BME280;11674;52.428;13.584;2023-02-12T16:24:32;103431.00;;;10.61;78.58
23016;BME280;11674;52.428;13.584;2023-02-12T16:29:54;103437.84;;;10.58;78.38
23016;BME280;11674;52.428;13.584;2023-02-12T16:50:36;103439.00;;;10.51;78.37
23016;BME280;11674;52.428;13.584;2023-02-12T16:55:44;103449.66;;;10.47;78.39
23016;BME280;11674;52.428;13.584;2023-02-12T17:00:52;103450.53;;;10.48;78.41
23016;BME280;11674;52.428;13.584;2023-02-12T17:06:00;103459.06;;;10.46;78.46
23016;BME280;11674;52.428;13.584;2023-02-12T17:11:07;103452.69;;;10.46;78.48
23016;BME280;11674;52.428;13.584;2023-02-12T17:16:14;103453.13;;;10.43;78.50
23016;BME280;11674;52.428;13.584;2023-02-12T17:21:27;103456.50;;;10.45;78.31
23016;BME280;11674;52.428;13.584;2023-02-12T17:26:35;103469.78;;;10.43;78.40
23016;BME280;11674;52.428;13.584;2023-02-12T17:31:42;103466.09;;;10.49;78.49
23016;BME280;11674;52.428;13.584;2023-02-12T17:36:49;103462.00;;;10.58;78.27
23016;BME280;11674;52.428;13.584;2023-02-12T17:41:56;103472.00;;;10.59;78.39
23016;BME280;11674;52.428;13.584;2023-02-12T17:47:03;103481.41;;;10.58;78.24
23016;BME280;11674;52.428;13.584;2023-02-12T17:52:10;103486.56;;;10.54;77.99
23016;BME280;11674;52.428;13.584;2023-02-12T17:57:17;103481.25;;;10.53;78.05
23016;BME280;11674;52.428;13.584;2023-02-12T18:02:24;103491.75;;;10.44;77.72
23016;BME280;11674;52.428;13.584;2023-02-12T18:07:32;103492.44;;;10.40;77.73
23016;BME280;11674;52.428;13.584;2023-02-12T18:12:40;103492.47;;;10.33;77.75
23016;BME280;11674;52.428;13.584;2023-02-12T18:17:47;103495.88;;;10.29;77.88
23016;BME280;11674;52.428;13.584;2023-02-12T18:22:54;103498.22;;;10.32;78.02
23016;BME280;11674;52.428;13.584;2023-02-12T18:28:01;103507.66;;;10.24;77.73
23016;BME280;11674;52.428;13.584;2023-02-12T18:33:09;103494.25;;;10.15;77.73
23016;BME280;11674;52.428;13.584;2023-02-12T18:38:16;103494.75;;;10.05;77.74
23016;BME280;11674;52.428;13.584;2023-02-12T18:43:23;103495.16;;;9.96;77.87
23016;BME280;11674;52.428;13.584;2023-02-12T18:48:30;103493.47;;;9.88;77.90
23016;BME280;11674;52.428;13.584;2023-02-12T18:53:37;103494.75;;;9.86;77.96
23016;BME280;11674;52.428;13.584;2023-02-12T18:58:44;103483.66;;;9.86;77.97
23016;BME280;11674;52.428;13.584;2023-02-12T19:03:57;103484.31;;;9.88;78.01
23016;BME280;11674;52.428;13.584;2023-02-12T19:09:04;103483.66;;;9.86;78.20
23016;BME280;11674;52.428;13.584;2023-02-12T19:14:15;103480.06;;;9.79;78.06
23016;BME280;11674;52.428;13.584;2023-02-12T19:19:23;103481.56;;;9.75;78.11
23016;BME280;11674;52.428;13.584;2023-02-12T19:24:30;103485.00;;;9.70;78.31
23016;BME280;11674;52.428;13.584;2023-02-12T19:29:37;103488.88;;;9.63;78.33
23016;BME280;11674;52.428;13.584;2023-02-12T19:34:44;103489.53;;;9.58;78.31
23016;BME280;11674;52.428;13.584;2023-02-12T19:39:58;103490.81;;;9.56;78.52
23016;BME280;11674;52.428;13.584;2023-02-12T19:45:05;103488.44;;;9.59;78.45
23016;BME280;11674;52.428;13.584;2023-02-12T19:50:12;103491.00;;;9.61;78.83
23016;BME280;11674;52.428;13.584;2023-02-12T19:55:19;103493.53;;;9.62;78.63
23016;BME280;11674;52.428;13.584;2023-02-12T20:00:26;103487.78;;;9.64;78.79
23016;BME280;11674;52.428;13.584;2023-02-12T20:05:33;103480.56;;;9.63;78.77
23016;BME280;11674;52.428;13.584;2023-02-12T20:10:40;103483.94;;;9.65;78.95
23016;BME280;11674;52.428;13.584;2023-02-12T20:15:47;103483.72;;;9.66;78.86
23016;BME280;11674;52.428;13.584;2023-02-12T20:20:54;103482.69;;;9.61;78.81
23016;BME280;11674;52.428;13.584;2023-02-12T20:26:09;103484.63;;;9.54;78.85
23016;BME280;11674;52.428;13.584;2023-02-12T20:31:22;103483.38;;;9.50;78.82
23016;BME280;11674;52.428;13.584;2023-02-12T20:36:31;103486.34;;;9.48;78.87
23016;BME280;11674;52.428;13.584;2023-02-12T20:41:39;103486.78;;;9.45;79.03
23016;BME280;11674;52.428;13.584;2023-02-12T20:46:47;103487.63;;;9.46;79.04
23016;BME280;11674;52.428;13.584;2023-02-12T20:51:55;103485.94;;;9.45;79.01
23016;BME280;11674;52.428;13.584;2023-02-12T20:57:02;103474.84;;;9.45;79.10
23016;BME280;11674;52.428;13.584;2023-02-12T21:02:10;103479.31;;;9.46;79.04
23016;BME280;11674;52.428;13.584;2023-02-12T21:07:17;103470.56;;;9.49;79.26
23016;BME280;11674;52.428;13.584;2023-02-12T21:12:24;103470.56;;;9.49;79.37
23016;BME280;11674;52.428;13.584;2023-02-12T21:17:31;103459.47;;;9.49;79.38
23016;BME280;11674;52.428;13.584;2023-02-12T21:22:38;103469.94;;;9.47;79.35
23016;BME280;11674;52.428;13.584;2023-02-12T21:27:45;103475.28;;;9.48;79.55
23016;BME280;11674;52.428;13.584;2023-02-12T21:32:52;103468.84;;;9.54;79.30
23016;BME280;11674;52.428;13.584;2023-02-12T21:37:59;103462.44;;;9.54;79.38
23016;BME280;11674;52.428;13.584;2023-02-12T21:43:06;103459.69;;;9.54;79.60
23016;BME280;11674;52.428;13.584;2023-02-12T21:48:13;103454.13;;;9.60;79.51
23016;BME280;11674;52.428;13.584;2023-02-12T21:53:20;103461.59;;;9.60;79.58
23016;BME280;11674;52.428;13.584;2023-02-12T21:58:27;103454.97;;;9.61;79.52
23016;BME280;11674;52.428;13.584;2023-02-12T22:03:35;103469.25;;;9.64;79.71
23016;BME280;11674;52.428;13.584;2023-02-12T22:08:42;103461.56;;;9.66;79.91
23016;BME280;11674;52.428;13.584;2023-02-12T22:13:49;103462.84;;;9.70;79.88
23016;BME280;11674;52.428;13.584;2023-02-12T22:18:58;103455.13;;;9.72;79.70
23016;BME280;11674;52.428;13.584;2023-02-12T22:24:07;103458.56;;;9.74;80.12
23016;BME280;11674;52.428;13.584;2023-02-12T22:29:15;103460.66;;;9.79;80.00
23016;BME280;11674;52.428;13.584;2023-02-12T22:34:22;103456.59;;;9.81;79.90
23016;BME280;11674;52.428;13.584;2023-02-12T22:39:29;103456.59;;;9.81;79.94
23016;BME280;11674;52.428;13.584;2023-02-12T22:44:36;103450.63;;;9.84;79.89
23016;BME280;11674;52.428;13.584;2023-02-12T22:49:43;103455.50;;;9.95;80.06
23016;BME280;11674;52.428;13.584;2023-02-12T22:54:50;103461.88;;;9.96;79.92
23016;BME280;11674;52.428;13.584;2023-02-12T22:59:57;103458.47;;;10.00;80.07
23016;BME280;11674;52.428;13.584;2023-02-12T23:05:04;103458.47;;;10.00;79.90
23016;BME280;11674;52.428;13.584;2023-02-12T23:10:11;103457.59;;;10.00;80.25
23016;BME280;11674;52.428;13.584;2023-02-12T23:15:18;103455.69;;;10.00;80.04
23016;BME280;11674;52.428;13.584;2023-02-12T23:20:25;103452.44;;;10.03;80.08
23016;BME280;11674;52.428;13.584;2023-02-12T23:25:32;103446.72;;;9.98;80.11
23016;BME280;11674;52.428;13.584;2023-02-12T23:30:39;103453.13;;;9.99;80.13
23016;BME280;11674;52.428;13.584;2023-02-12T23:35:47;103448.19;;;10.01;80.19
23016;BME280;11674;52.428;13.584;2023-02-12T23:40:54;103442.66;;;10.01;79.99
23016;BME280;11674;52.428;13.584;2023-02-12T23:46:01;103432.84;;;9.98;80.36
23016;BME280;11674;52.428;13.584;2023-02-12T23:51:08;103434.78;;;9.98;80.25
23016;BME280;11674;52.428;13.584;2023-02-12T23:56:15;103435.41;;;10.00;80.21
